Time;durP1;ratioP1;P1;durP2;ratioP2;P2;SDS_P1;SDS_P2;PMS_P1;PMS_P2;Temp;Humidity;BMP_temperature;BMP_pressure;BME280_temperature;BME280_humidity;BME280_pressure;Samples;Min_cycle;Max_cycle;Signal;HPM_P1;HPM_P2
2021/12/19 00:04:30;;;;;;;;;;;8.40;79.70;;;;;;4980608;28;20494;-75
2021/12/19 00:09:51;;;;;;;6.43;4.57;;;8.40;79.80;;;;;;4971283;28;20593;-74
2021/12/19 00:12:17;;;;;;;5.95;3.95;;;8.40;79.80;;;;;;4972677;28;20049;-74
2021/12/19 00:14:42;;;;;;;7.53;4.10;;;8.40;79.80;;;;;;4955831;28;20141;-74
2021/12/19 00:17:08;;;;;;;7.88;5.10;;;8.40;79.80;;;;;;4972743;28;20057;-74
2021/12/19 00:19:34;;;;;;;7.00;4.65;;;8.40;79.80;;;;;;4972474;28;20109;-74
2021/12/19 00:21:59;;;;;;;6.63;4.70;;;8.40;79.80;;;;;;4972637;28;20125;-75
2021/12/19 00:24:25;;;;;;;9.48;5.50;;;8.50;79.90;;;;;;4971940;28;20074;-74
2021/12/19 00:26:51;;;;;;;7.43;4.25;;;8.50;80.00;;;;;;4972491;28;20062;-75
2021/12/19 00:29:17;;;;;;;7.22;4.95;;;8.50;80.00;;;;;;4972231;28;20146;-75
2021/12/19 00:31:46;;;;;;;8.13;4.70;;;8.50;80.00;;;;;;4972461;28;20074;-74
2021/12/19 00:34:13;;;;;;;7.50;4.82;;;8.50;80.00;;;;;;4971732;28;20054;-74
2021/12/19 00:36:39;;;;;;;8.13;5.25;;;8.50;80.00;;;;;;4972084;28;20057;-75
2021/12/19 00:39:06;;;;;;;8.02;5.40;;;8.50;80.00;;;;;;4971573;28;20078;-75
2021/12/19 00:41:32;;;;;;;9.98;5.93;;;8.50;80.00;;;;;;4972336;28;20051;-75
2021/12/19 00:44:08;;;;;;;8.52;5.68;;;8.50;80.00;;;;;;4971883;28;20093;-75
2021/12/19 00:46:45;;;;;;;8.35;5.47;;;8.50;80.00;;;;;;4974542;28;20058;-75
2021/12/19 00:49:12;;;;;;;8.15;5.72;;;8.50;80.00;;;;;;4986853;28;20069;-74
2021/12/19 00:51:38;;;;;;;9.65;5.97;;;8.50;80.00;;;;;;4976762;28;20043;-75
2021/12/19 00:54:08;;;;;;;7.38;5.35;;;8.50;80.00;;;;;;4976783;28;20097;-75
2021/12/19 00:56:35;;;;;;;9.77;5.07;;;8.50;80.10;;;;;;4987853;28;20051;-75
2021/12/19 00:59:01;;;;;;;6.25;4.70;;;8.50;80.10;;;;;;4989416;28;20050;-75
2021/12/19 01:01:27;;;;;;;9.35;5.65;;;8.50;80.10;;;;;;4961351;28;20390;-75
2021/12/19 01:03:53;;;;;;;8.35;4.68;;;8.50;80.10;;;;;;4977062;28;20163;-75
2021/12/19 01:06:19;;;;;;;8.05;4.97;;;8.50;80.10;;;;;;4959134;28;20129;-75
2021/12/19 01:08:47;;;;;;;8.15;4.63;;;8.50;80.10;;;;;;4981434;28;20056;-75
2021/12/19 01:11:13;;;;;;;7.25;4.53;;;8.50;80.00;;;;;;4985981;28;20045;-75
2021/12/19 01:13:38;;;;;;;7.80;4.35;;;8.50;80.00;;;;;;4983409;28;20043;-75
2021/12/19 01:16:04;;;;;;;8.20;5.15;;;8.50;80.00;;;;;;4986094;28;20141;-74
2021/12/19 01:18:30;;;;;;;11.15;5.72;;;8.50;80.00;;;;;;4989546;28;20061;-75
2021/12/19 01:20:56;;;;;;;9.07;5.60;;;8.50;80.00;;;;;;4983579;28;20038;-75
2021/12/19 01:23:22;;;;;;;7.32;4.57;;;8.50;80.00;;;;;;4994929;28;20483;-75
2021/12/19 01:25:49;;;;;;;7.60;4.32;;;8.50;80.00;;;;;;4989511;28;20030;-75
2021/12/19 01:28:15;;;;;;;5.97;3.72;;;8.50;80.00;;;;;;4987925;28;20061;-74
2021/12/19 01:30:41;;;;;;;7.10;4.00;;;8.50;79.90;;;;;;4994411;28;20133;-74
2021/12/19 01:33:07;;;;;;;5.57;3.75;;;8.50;79.90;;;;;;4997702;28;20070;-75
2021/12/19 01:35:33;;;;;;;5.35;2.90;;;8.50;79.90;;;;;;4994345;28;20157;-74
2021/12/19 01:37:59;;;;;;;5.60;2.90;;;8.50;79.80;;;;;;4996498;28;20042;-75
2021/12/19 01:40:26;;;;;;;4.60;2.30;;;8.50;79.70;;;;;;4992941;28;20045;-75
2021/12/19 01:42:54;;;;;;;4.88;2.90;;;8.50;79.70;;;;;;4979328;28;20047;-75
2021/12/19 01:45:29;;;;;;;4.35;2.45;;;8.50;79.70;;;;;;4991306;28;20113;-75
2021/12/19 01:47:56;;;;;;;5.60;2.65;;;8.50;79.70;;;;;;4964357;28;20061;-75
2021/12/19 01:50:22;;;;;;;4.28;2.65;;;8.50;79.60;;;;;;4984355;28;20039;-75
2021/12/19 01:52:49;;;;;;;3.67;1.80;;;8.50;79.50;;;;;;4990465;28;20054;-75
2021/12/19 01:55:15;;;;;;;3.60;1.90;;;8.50;79.50;;;;;;4985730;28;20057;-74
2021/12/19 01:57:41;;;;;;;3.42;1.75;;;8.50;79.80;;;;;;4992252;28;20047;-75
2021/12/19 02:00:16;;;;;;;4.10;1.85;;;8.50;79.40;;;;;;4976654;28;20050;-74
2021/12/19 02:02:42;;;;;;;4.35;2.05;;;8.40;79.30;;;;;;4980593;28;20047;-74
2021/12/19 02:05:08;;;;;;;4.72;2.20;;;8.40;79.30;;;;;;4977590;28;20046;-75
2021/12/19 02:07:34;;;;;;;3.70;2.08;;;8.40;79.30;;;;;;4978222;28;20525;-74
2021/12/19 02:09:59;;;;;;;4.47;1.58;;;8.40;79.30;;;;;;4982506;28;20382;-75
2021/12/19 02:12:25;;;;;;;3.40;1.83;;;8.40;79.40;;;;;;4984017;28;20042;-74
2021/12/19 02:14:51;;;;;;;4.78;1.63;;;8.40;79.40;;;;;;4991573;28;20046;-75
2021/12/19 02:17:17;;;;;;;4.43;1.85;;;8.40;79.40;;;;;;4988945;28;20105;-75
2021/12/19 02:19:43;;;;;;;3.17;1.80;;;8.40;79.50;;;;;;4989332;28;20041;-75
2021/12/19 02:22:08;;;;;;;4.05;1.73;;;8.40;79.50;;;;;;4989478;28;20038;-75
2021/12/19 02:24:34;;;;;;;3.35;1.77;;;8.40;79.50;;;;;;4995019;28;20383;-75
2021/12/19 02:27:00;;;;;;;3.53;1.58;;;8.40;79.60;;;;;;4993557;28;20046;-75
2021/12/19 02:29:26;;;;;;;3.83;1.40;;;8.40;79.60;;;;;;4993038;28;20042;-75
2021/12/19 02:31:52;;;;;;;2.85;1.50;;;8.40;79.50;;;;;;4977782;28;20521;-75
2021/12/19 02:34:23;;;;;;;2.38;1.30;;;8.40;79.60;;;;;;4977122;28;20414;-74
2021/12/19 02:50:19;;;;;;;3.88;1.25;;;8.30;79.40;;;;;;4988960;28;20046;-74
2021/12/19 02:52:45;;;;;;;2.60;1.20;;;8.30;79.40;;;;;;4986219;28;20138;-74
2021/12/19 02:55:14;;;;;;;1.95;0.90;;;8.30;79.40;;;;;;4984890;28;20549;-74
2021/12/19 02:57:40;;;;;;;2.33;1.33;;;8.30;79.40;;;;;;4975314;28;20056;-75
2021/12/19 03:00:15;;;;;;;3.05;1.13;;;8.30;79.50;;;;;;4991014;28;20122;-75
2021/12/19 03:02:41;;;;;;;1.98;1.10;;;8.30;79.60;;;;;;4986256;28;20502;-75
2021/12/19 03:05:07;;;;;;;2.30;0.80;;;8.40;79.60;;;;;;4981099;28;20041;-74
2021/12/19 03:07:38;;;;;;;1.90;1.00;;;8.30;79.60;;;;;;4965840;28;20046;-74
2021/12/19 03:17:59;;;;;;;2.90;1.63;;;8.40;79.60;;;;;;4945347;29;20059;-75
2021/12/19 03:20:26;;;;;;;2.88;1.13;;;8.30;79.50;;;;;;4935746;29;20143;-75
2021/12/19 03:22:52;;;;;;;4.05;1.52;;;8.30;79.50;;;;;;4923992;29;20094;-75
2021/12/19 03:25:18;;;;;;;4.43;1.70;;;8.30;79.40;;;;;;4935955;29;20486;-74
2021/12/19 03:27:43;;;;;;;2.65;1.42;;;8.30;79.40;;;;;;4935701;29;20146;-74
2021/12/19 03:30:09;;;;;;;4.70;1.63;;;8.30;79.40;;;;;;4935284;29;20048;-74
2021/12/19 03:32:35;;;;;;;2.90;1.48;;;8.30;79.30;;;;;;4935629;29;20048;-75
2021/12/19 03:35:01;;;;;;;3.65;1.52;;;8.30;79.10;;;;;;4919148;29;20063;-74
2021/12/19 03:37:27;;;;;;;2.80;1.65;;;8.30;79.10;;;;;;4937628;29;20159;-74
2021/12/19 03:40:09;;;;;;;2.85;1.40;;;8.20;78.90;;;;;;4945531;29;20126;-75
2021/12/19 03:42:39;;;;;;;4.20;1.33;;;8.20;78.90;;;;;;4945951;29;20055;-75
2021/12/19 03:45:07;;;;;;;4.38;1.70;;;8.20;78.80;;;;;;4900375;29;20090;-75
2021/12/19 03:47:33;;;;;;;2.42;1.27;;;8.20;78.80;;;;;;4933685;29;20173;-74
2021/12/19 03:49:58;;;;;;;3.53;1.48;;;8.20;78.80;;;;;;4934993;29;20515;-74
2021/12/19 03:52:24;;;;;;;3.20;1.60;;;8.20;78.90;;;;;;4925498;29;20044;-74
2021/12/19 03:54:50;;;;;;;2.25;1.20;;;8.20;78.90;;;;;;4961017;28;20058;-75
2021/12/19 03:57:15;;;;;;;2.80;1.27;;;8.10;78.90;;;;;;4986736;28;20046;-74
2021/12/19 03:59:44;;;;;;;2.40;0.90;;;8.10;78.90;;;;;;4976555;28;20034;-74
2021/12/19 04:02:11;;;;;;;2.85;1.00;;;8.10;78.90;;;;;;4984638;28;20065;-75
2021/12/19 04:04:38;;;;;;;2.00;0.70;;;8.10;78.80;;;;;;4976180;28;20403;-75
2021/12/19 04:07:04;;;;;;;1.67;0.70;;;8.10;79.30;;;;;;4976880;28;20053;-74
2021/12/19 04:09:30;;;;;;;1.98;0.90;;;8.10;79.00;;;;;;4975978;28;20051;-73
2021/12/19 04:11:56;;;;;;;1.88;0.90;;;8.10;79.00;;;;;;4981711;28;20039;-73
2021/12/19 04:14:22;;;;;;;1.98;1.00;;;8.10;79.00;;;;;;4980271;28;20066;-74
2021/12/19 04:16:48;;;;;;;2.83;1.20;;;8.10;79.00;;;;;;4976189;28;20054;-74
2021/12/19 04:19:14;;;;;;;1.35;0.60;;;8.10;79.00;;;;;;4976065;28;20186;-74
2021/12/19 04:21:40;;;;;;;2.17;0.75;;;8.10;79.00;;;;;;4964056;28;20138;-74
2021/12/19 04:24:06;;;;;;;2.00;0.90;;;8.10;79.00;;;;;;4986723;28;20058;-74
2021/12/19 04:26:32;;;;;;;1.50;0.70;;;8.20;79.10;;;;;;4993712;28;20052;-73
2021/12/19 04:28:57;;;;;;;3.80;0.80;;;8.10;79.00;;;;;;4974707;28;20456;-73
2021/12/19 04:31:23;;;;;;;1.70;0.70;;;8.10;79.10;;;;;;4974924;28;20039;-74
2021/12/19 04:33:49;;;;;;;1.00;0.65;;;8.10;79.50;;;;;;4976595;28;20049;-74
2021/12/19 04:36:22;;;;;;;1.52;0.77;;;8.20;79.20;;;;;;4982562;28;20463;-74
2021/12/19 04:41:50;;;;;;;1.50;0.68;;;8.20;79.20;;;;;;4976034;28;20046;-73
2021/12/19 04:51:03;;;;;;;1.03;0.50;;;8.20;79.20;;;;;;4976059;28;20491;-73
2021/12/19 04:55:44;;;;;;;0.60;0.50;;;8.10;79.00;;;;;;4976201;28;20047;-74
2021/12/19 05:01:30;;;;;;;1.42;0.52;;;8.20;79.10;;;;;;4979493;28;20052;-74
2021/12/19 05:03:45;;;;;;;1.42;0.50;;;8.10;79.00;;;;;;4966225;28;20057;-74
2021/12/19 05:14:22;;;;;;;0.65;0.40;;;8.10;79.00;;;;;;4986746;28;20474;-73
2021/12/19 05:16:49;;;;;;;2.38;0.63;;;8.10;79.00;;;;;;4983730;28;20086;-73
2021/12/19 05:19:29;;;;;;;1.70;0.60;;;8.10;79.00;;;;;;4980428;28;20053;-73
2021/12/19 05:21:58;;;;;;;1.60;0.68;;;8.10;79.00;;;;;;4980488;28;20050;-73
2021/12/19 05:27:05;;;;;;;0.68;0.45;;;8.10;78.90;;;;;;4979143;28;20508;-73
2021/12/19 05:29:32;;;;;;;1.27;0.50;;;8.10;79.00;;;;;;4982148;28;20073;-73
2021/12/19 05:31:59;;;;;;;2.17;0.43;;;8.10;79.00;;;;;;4987822;28;20051;-73
2021/12/19 05:34:25;;;;;;;1.48;0.70;;;8.10;79.00;;;;;;4980096;28;20394;-73
2021/12/19 05:47:30;;;;;;;1.90;0.80;;;8.10;79.10;;;;;;4981137;28;20486;-74
2021/12/19 05:49:56;;;;;;;1.77;0.77;;;8.10;79.10;;;;;;4982377;28;20047;-73
2021/12/19 05:52:21;;;;;;;4.15;1.08;;;8.10;79.10;;;;;;4986464;28;20039;-74
2021/12/19 05:54:47;;;;;;;2.60;1.27;;;8.10;79.10;;;;;;4965307;28;20051;-73
2021/12/19 05:57:15;;;;;;;3.97;1.27;;;8.10;79.20;;;;;;4995612;28;20061;-73
2021/12/19 05:59:40;;;;;;;3.70;1.85;;;8.10;79.20;;;;;;4993765;28;20097;-73
2021/12/19 06:02:06;;;;;;;4.10;1.52;;;8.10;79.20;;;;;;4975402;28;20058;-74
2021/12/19 06:04:32;;;;;;;4.57;2.53;;;8.10;79.30;;;;;;4979671;28;20038;-74
2021/12/19 06:06:58;;;;;;;7.78;2.17;;;8.10;79.30;;;;;;4977404;28;20051;-74
2021/12/19 06:09:24;;;;;;;9.27;3.22;;;8.10;79.30;;;;;;4978584;28;20078;-74
2021/12/19 06:11:49;;;;;;;7.70;3.05;;;8.10;79.30;;;;;;4986471;28;20238;-74
2021/12/19 06:14:15;;;;;;;10.38;3.65;;;8.10;79.30;;;;;;4991110;28;20050;-74
2021/12/19 06:16:40;;;;;;;8.85;3.42;;;8.10;79.30;;;;;;4993878;28;20073;-74
2021/12/19 06:19:06;;;;;;;6.00;2.88;;;8.00;79.20;;;;;;4979070;28;20047;-74
2021/12/19 06:21:32;;;;;;;10.90;4.30;;;8.00;79.20;;;;;;4977069;28;20047;-74
2021/12/19 06:23:57;;;;;;;8.55;3.30;;;8.10;79.30;;;;;;4978433;28;20061;-73
2021/12/19 06:26:23;;;;;;;9.60;4.18;;;8.10;79.30;;;;;;4985286;28;20062;-74
2021/12/19 06:28:49;;;;;;;10.43;3.58;;;8.10;79.30;;;;;;4978162;28;20042;-74
2021/12/19 06:31:17;;;;;;;14.52;4.68;;;8.10;79.30;;;;;;4981576;28;20035;-74
2021/12/19 06:33:42;;;;;;;12.77;4.78;;;8.10;79.30;;;;;;4996133;28;20042;-74
2021/12/19 06:36:09;;;;;;;11.23;5.07;;;8.10;79.30;;;;;;4993256;28;20437;-73
2021/12/19 06:38:35;;;;;;;11.50;4.55;;;8.10;79.30;;;;;;4994660;28;20042;-74
2021/12/19 06:41:01;;;;;;;12.68;4.60;;;8.10;79.30;;;;;;4973790;28;20379;-74
2021/12/19 06:43:30;;;;;;;10.23;3.85;;;8.10;79.30;;;;;;4994998;28;20046;-73
2021/12/19 06:45:56;;;;;;;10.50;3.88;;;8.10;79.30;;;;;;4988671;28;20096;-73
2021/12/19 06:48:24;;;;;;;13.45;4.60;;;8.10;79.30;;;;;;4979555;28;20042;-74
2021/12/19 06:50:51;;;;;;;9.98;4.97;;;8.10;79.30;;;;;;4979243;28;20147;-74
2021/12/19 06:53:16;;;;;;;9.20;4.70;;;8.10;79.30;;;;;;4976847;28;20042;-74
2021/12/19 06:55:42;;;;;;;14.70;5.47;;;8.10;79.30;;;;;;4983542;28;20089;-74
2021/12/19 06:58:08;;;;;;;15.50;6.20;;;8.20;79.40;;;;;;4977534;28;20155;-73
2021/12/19 07:00:34;;;;;;;11.20;5.70;;;8.20;79.30;;;;;;4982915;28;20038;-73
2021/12/19 07:02:59;;;;;;;14.05;6.55;;;8.20;79.30;;;;;;4996124;28;20054;-74
2021/12/19 07:05:25;;;;;;;17.13;6.95;;;8.10;79.20;;;;;;4992070;28;20446;-73
2021/12/19 07:07:51;;;;;;;19.63;7.13;;;8.20;79.30;;;;;;4995158;28;20469;-74
2021/12/19 07:10:17;;;;;;;15.77;6.10;;;8.20;79.30;;;;;;4990871;28;20038;-74
2021/12/19 07:12:42;;;;;;;15.05;6.13;;;8.20;79.20;;;;;;4993926;28;20030;-73
2021/12/19 07:15:09;;;;;;;17.77;5.93;;;8.20;79.10;;;;;;4992536;28;20555;-75
2021/12/19 07:17:36;;;;;;;19.63;5.75;;;8.20;79.10;;;;;;4993926;28;20081;-74
2021/12/19 07:20:03;;;;;;;12.60;4.97;;;8.20;79.10;;;;;;4989907;28;20050;-73
2021/12/19 07:22:29;;;;;;;11.90;4.80;;;8.20;79.00;;;;;;4990069;28;20046;-74
2021/12/19 07:24:54;;;;;;;11.65;4.43;;;8.20;78.90;;;;;;4995566;28;20462;-74
2021/12/19 07:27:20;;;;;;;10.80;4.28;;;8.20;78.80;;;;;;4981547;28;20054;-74
2021/12/19 07:29:47;;;;;;;12.68;4.57;;;8.20;78.80;;;;;;4984786;28;20040;-74
2021/12/19 07:32:13;;;;;;;11.80;3.88;;;8.20;78.80;;;;;;4989144;28;20126;-74
2021/12/19 07:34:39;;;;;;;10.73;3.60;;;8.20;78.80;;;;;;4995559;28;20464;-74
2021/12/19 07:37:05;;;;;;;11.23;3.67;;;8.10;78.70;;;;;;4983247;28;20480;-74
2021/12/19 07:42:05;;;;;;;11.43;4.00;;;8.10;78.60;;;;;;4982258;28;20061;-74
2021/12/19 07:44:31;;;;;;;7.47;3.58;;;8.20;78.60;;;;;;4980805;28;20494;-74
2021/12/19 07:46:57;;;;;;;12.80;3.67;;;8.10;78.50;;;;;;4982266;28;20047;-73
2021/12/19 07:49:22;;;;;;;10.27;4.32;;;8.10;78.50;;;;;;4976537;28;20081;-73
2021/12/19 07:51:48;;;;;;;11.90;3.92;;;8.20;78.60;;;;;;4981289;28;20505;-74
2021/12/19 07:54:14;;;;;;;11.90;4.22;;;8.10;78.50;;;;;;4979255;28;20038;-74
2021/12/19 07:56:39;;;;;;;14.43;4.00;;;8.20;78.50;;;;;;4983471;28;20039;-74
2021/12/19 07:59:06;;;;;;;10.40;3.80;;;8.20;78.50;;;;;;4994642;28;20430;-73
2021/12/19 08:01:32;;;;;;;7.53;3.50;;;8.20;78.50;;;;;;4987963;28;20043;-74
2021/12/19 08:03:57;;;;;;;9.73;4.78;;;8.20;78.60;;;;;;4988704;28;20046;-73
2021/12/19 08:06:23;;;;;;;12.10;3.72;;;8.20;78.50;;;;;;4987565;28;20122;-74
2021/12/19 08:08:55;;;;;;;11.50;4.57;;;8.20;78.50;;;;;;4980913;28;20046;-73
2021/12/19 08:14:10;;;;;;;11.68;4.05;;;8.20;78.50;;;;;;4986823;28;20177;-73
2021/12/19 08:16:36;;;;;;;10.82;3.50;;;8.20;78.50;;;;;;4987231;28;20133;-75
2021/12/19 08:19:02;;;;;;;9.00;3.30;;;8.20;78.50;;;;;;4992687;28;20081;-75
2021/12/19 08:21:27;;;;;;;15.77;4.95;;;8.20;78.60;;;;;;4992716;28;20498;-75
2021/12/19 08:23:57;;;;;;;11.18;4.22;;;8.20;78.50;;;;;;4978112;28;20049;-75
2021/12/19 08:26:23;;;;;;;8.32;3.42;;;8.20;78.50;;;;;;4979287;28;20046;-74
2021/12/19 08:28:48;;;;;;;10.07;3.35;;;8.20;78.50;;;;;;4960291;28;20085;-73
2021/12/19 08:31:14;;;;;;;11.38;3.83;;;8.20;78.50;;;;;;4975154;28;20047;-73
2021/12/19 08:33:40;;;;;;;9.73;3.20;;;8.20;78.50;;;;;;4977494;28;20487;-73
2021/12/19 08:36:05;;;;;;;9.15;2.80;;;8.20;78.50;;;;;;4989374;28;20113;-74
2021/12/19 08:38:31;;;;;;;11.52;3.15;;;8.20;78.50;;;;;;4989265;28;20410;-74
2021/12/19 08:40:58;;;;;;;5.95;2.60;;;8.20;78.50;;;;;;4979186;28;20046;-74
2021/12/19 08:43:24;;;;;;;10.30;2.70;;;8.20;78.50;;;;;;4984691;28;20054;-73
2021/12/19 08:45:50;;;;;;;10.85;3.53;;;8.20;78.60;;;;;;4975626;28;20061;-73
2021/12/19 08:48:18;;;;;;;6.35;2.72;;;8.20;78.50;;;;;;4981645;28;20050;-73
2021/12/19 08:50:45;;;;;;;10.48;3.03;;;8.20;78.50;;;;;;4976007;28;20057;-73
2021/12/19 08:53:11;;;;;;;7.95;2.90;;;8.20;78.60;;;;;;4982738;28;20461;-73
2021/12/19 08:55:36;;;;;;;8.85;2.83;;;8.30;78.70;;;;;;4978707;28;20047;-72
2021/12/19 08:58:02;;;;;;;5.75;2.78;;;8.30;78.70;;;;;;4983481;28;20035;-74
2021/12/19 09:00:30;;;;;;;7.70;2.55;;;8.20;78.70;;;;;;4979863;28;20450;-75
2021/12/19 09:02:57;;;;;;;10.68;2.85;;;8.30;78.80;;;;;;4980037;28;20112;-74
2021/12/19 09:05:26;;;;;;;7.10;2.70;;;8.30;78.80;;;;;;4970683;28;20042;-74
2021/12/19 09:07:52;;;;;;;7.93;2.83;;;8.30;78.80;;;;;;4976728;28;20042;-74
2021/12/19 09:10:19;;;;;;;9.48;3.13;;;8.30;78.80;;;;;;4982402;28;20406;-74
2021/12/19 09:12:45;;;;;;;7.90;2.70;;;8.40;78.90;;;;;;4975497;28;20038;-75
2021/12/19 09:15:11;;;;;;;11.68;3.08;;;8.30;78.80;;;;;;4968896;28;20058;-74
2021/12/19 09:17:37;;;;;;;6.20;2.10;;;8.30;78.80;;;;;;4979443;28;20052;-74
2021/12/19 09:20:05;;;;;;;9.45;2.40;;;8.30;78.80;;;;;;4980851;28;20483;-74
2021/12/19 09:22:31;;;;;;;7.68;2.55;;;8.30;78.90;;;;;;4959451;28;20138;-74
2021/12/19 09:24:57;;;;;;;5.68;2.65;;;8.30;78.80;;;;;;4982405;28;20117;-75
2021/12/19 09:27:22;;;;;;;8.25;2.72;;;8.30;78.90;;;;;;4990742;28;20514;-75
2021/12/19 09:29:48;;;;;;;7.53;2.40;;;8.30;78.80;;;;;;4972014;28;20489;-74
2021/12/19 09:32:13;;;;;;;12.73;3.45;;;8.30;78.80;;;;;;4972887;28;20076;-74
2021/12/19 09:34:39;;;;;;;9.20;3.00;;;8.40;78.90;;;;;;4979822;28;20050;-74
2021/12/19 09:37:05;;;;;;;7.80;2.45;;;8.40;78.90;;;;;;4965488;28;20073;-75
2021/12/19 09:39:32;;;;;;;8.00;2.92;;;8.40;78.90;;;;;;4977637;28;20051;-75
2021/12/19 09:42:06;;;;;;;11.05;2.70;;;8.40;78.90;;;;;;4994618;28;20426;-75
2021/12/19 09:44:33;;;;;;;9.27;2.92;;;8.40;78.90;;;;;;4963632;28;20054;-75
2021/12/19 09:46:59;;;;;;;13.15;2.80;;;8.40;78.90;;;;;;4987265;28;20070;-75
2021/12/19 09:49:24;;;;;;;8.18;2.70;;;8.40;78.90;;;;;;4983677;28;20074;-75
2021/12/19 09:51:51;;;;;;;9.82;2.67;;;8.40;78.90;;;;;;4977039;28;20054;-75
2021/12/19 09:54:17;;;;;;;6.35;2.75;;;8.40;79.40;;;;;;4986646;28;20118;-75
2021/12/19 09:56:42;;;;;;;9.63;2.60;;;8.40;79.00;;;;;;4989765;28;20476;-75
2021/12/19 09:59:12;;;;;;;9.23;2.85;;;8.40;79.00;;;;;;4980018;28;20402;-75
2021/12/19 10:01:38;;;;;;;8.57;2.20;;;8.50;79.10;;;;;;4978987;28;20046;-75
2021/12/19 10:04:05;;;;;;;8.55;2.28;;;8.40;79.00;;;;;;4980644;28;20082;-76
2021/12/19 10:06:32;;;;;;;9.52;2.40;;;8.50;79.10;;;;;;4994109;28;20085;-74
2021/12/19 10:09:08;;;;;;;10.77;2.83;;;8.50;79.10;;;;;;4982878;28;20073;-75
2021/12/19 10:11:57;;;;;;;6.80;2.63;;;8.50;79.10;;;;;;4978509;28;20042;-74
2021/12/19 10:14:34;;;;;;;5.93;2.20;;;8.50;79.20;;;;;;4978604;28;20509;-74
2021/12/19 10:17:03;;;;;;;11.65;2.60;;;8.50;79.20;;;;;;4977088;28;20046;-75
2021/12/19 10:19:47;;;;;;;8.10;2.72;;;8.50;79.20;;;;;;4984859;28;20042;-75
2021/12/19 10:22:44;;;;;;;11.57;2.83;;;8.50;79.20;;;;;;4964042;28;20105;-75
2021/12/19 10:25:22;;;;;;;6.55;2.40;;;8.50;79.10;;;;;;4921241;29;20428;-75
2021/12/19 10:27:56;;;;;;;8.55;2.65;;;8.50;79.30;;;;;;4901577;29;20075;-74
2021/12/19 10:30:43;;;;;;;11.35;2.80;;;8.50;79.30;;;;;;4934785;29;20055;-74
2021/12/19 10:33:13;;;;;;;11.52;3.03;;;8.50;79.30;;;;;;4934372;29;20056;-74
2021/12/19 10:35:50;;;;;;;9.40;2.88;;;8.60;79.30;;;;;;4933571;29;20056;-75
2021/12/19 10:38:26;;;;;;;11.13;3.03;;;8.60;79.30;;;;;;4935723;29;20082;-74
2021/12/19 10:41:12;;;;;;;12.95;3.50;;;8.60;79.30;;;;;;4934970;29;20046;-75
2021/12/19 10:44:05;;;;;;;9.35;2.97;;;8.60;79.30;;;;;;4935306;29;20087;-74
2021/12/19 10:46:37;;;;;;;11.93;3.75;;;8.60;79.30;;;;;;4933699;29;20052;-74
2021/12/19 10:49:04;;;;;;;7.18;2.78;;;8.60;79.30;;;;;;4931454;29;20156;-74
2021/12/19 10:51:36;;;;;;;12.35;3.35;;;8.60;79.30;;;;;;4913255;29;20059;-74
2021/12/19 10:54:04;;;;;;;15.98;3.00;;;8.60;79.30;;;;;;4934822;28;20052;-74
2021/12/19 10:56:35;;;;;;;11.13;3.35;;;8.70;79.40;;;;;;4934204;29;20075;-74
2021/12/19 10:59:02;;;;;;;9.90;2.70;;;8.60;79.30;;;;;;4935641;29;20055;-75
2021/12/19 11:01:34;;;;;;;11.95;2.97;;;8.70;79.30;;;;;;4943608;28;20177;-74
2021/12/19 11:04:20;;;;;;;10.85;2.70;;;8.70;79.40;;;;;;4984414;28;20050;-74
2021/12/19 11:06:59;;;;;;;8.77;2.90;;;8.70;79.40;;;;;;4984928;28;20490;-73
2021/12/19 11:09:30;;;;;;;9.57;3.42;;;8.70;79.40;;;;;;4977046;28;20077;-74
2021/12/19 11:12:07;;;;;;;8.48;2.97;;;8.70;79.40;;;;;;4969602;28;20577;-73
2021/12/19 11:14:44;;;;;;;9.27;2.72;;;8.70;79.30;;;;;;4984929;28;20117;-74
2021/12/19 11:17:14;;;;;;;11.13;2.70;;;8.70;79.30;;;;;;4991476;28;20074;-74
2021/12/19 11:19:41;;;;;;;10.30;2.90;;;8.70;79.30;;;;;;4985666;28;20255;-74
2021/12/19 11:22:08;;;;;;;9.05;3.20;;;8.70;79.30;;;;;;4965418;28;20058;-74
2021/12/19 11:24:33;;;;;;;9.35;3.10;;;8.70;79.20;;;;;;4979607;28;20080;-75
2021/12/19 11:27:01;;;;;;;11.73;4.38;;;8.70;79.20;;;;;;4963873;28;20050;-74
2021/12/19 11:29:28;;;;;;;12.35;3.10;;;8.80;79.30;;;;;;4980801;28;20057;-74
2021/12/19 11:31:58;;;;;;;14.52;3.83;;;8.70;79.20;;;;;;4992782;28;20505;-74
2021/12/19 11:34:45;;;;;;;8.70;3.28;;;8.70;79.20;;;;;;4994912;28;20047;-74
2021/12/19 11:37:18;;;;;;;11.43;3.58;;;8.80;79.20;;;;;;4990021;28;20042;-74
2021/12/19 11:39:50;;;;;;;12.13;2.60;;;8.80;79.20;;;;;;4980519;28;20042;-74
2021/12/19 11:42:18;;;;;;;9.90;3.50;;;8.80;79.20;;;;;;4965687;28;20157;-74
2021/12/19 11:47:37;;;;;;;14.35;3.35;;;8.80;79.20;;;;;;4976020;28;20047;-74
2021/12/19 11:50:11;;;;;;;8.05;2.70;;;8.80;79.20;;;;;;4978916;28;20049;-74
2021/12/19 11:52:37;;;;;;;13.65;3.05;;;8.80;79.20;;;;;;4990397;28;20042;-74
2021/12/19 11:55:14;;;;;;;14.70;3.63;;;8.80;79.20;;;;;;4990932;28;20065;-73
2021/12/19 11:57:42;;;;;;;11.20;2.80;;;8.80;79.20;;;;;;4958086;28;20249;-74
2021/12/19 12:00:27;;;;;;;9.82;3.03;;;8.80;79.20;;;;;;4977293;28;20397;-75
2021/12/19 12:03:10;;;;;;;;;;;8.80;79.20;;;;;;4976695;28;20102;-74
2021/12/19 12:05:36;;;;;;;11.95;3.60;;;8.80;79.00;;;;;;4972439;28;20373;-74
2021/12/19 12:08:08;;;;;;;9.57;2.40;;;8.80;79.30;;;;;;4988086;28;20038;-74
2021/12/19 12:10:49;;;;;;;11.60;2.70;;;8.80;79.30;;;;;;4985860;28;20042;-74
2021/12/19 12:13:32;;;;;;;9.95;3.38;;;8.90;79.30;;;;;;4988725;28;20073;-74
2021/12/19 12:18:53;;;;;;;13.23;3.80;;;8.90;79.20;;;;;;4978277;28;20054;-74
2021/12/19 12:21:19;;;;;;;8.88;2.90;;;8.90;79.10;;;;;;4982201;28;20089;-73
2021/12/19 12:23:56;;;;;;;11.55;3.10;;;8.90;79.00;;;;;;4975629;28;20054;-74
2021/12/19 12:26:36;;;;;;;13.35;2.53;;;8.90;79.00;;;;;;4960856;28;20113;-74
2021/12/19 12:29:01;;;;;;;11.57;2.67;;;8.90;78.80;;;;;;4988588;28;20379;-73
2021/12/19 12:31:27;;;;;;;12.63;2.70;;;8.90;78.80;;;;;;4987224;28;20129;-74
2021/12/19 12:33:54;;;;;;;11.60;3.13;;;8.90;78.70;;;;;;4987936;28;20140;-74
2021/12/19 12:36:21;;;;;;;13.82;3.35;;;8.90;78.60;;;;;;4978178;28;20043;-78
2021/12/19 12:38:50;;;;;;;13.70;3.47;;;8.90;78.60;;;;;;4965009;28;20055;-81
2021/12/19 12:43:54;;;;;;;8.60;2.35;;;8.90;78.50;;;;;;4977789;28;20050;-75
2021/12/19 12:46:21;;;;;;;10.15;2.63;;;8.90;78.90;;;;;;4975361;28;20041;-80
2021/12/19 12:48:54;;;;;;;11.23;2.80;;;8.90;78.50;;;;;;4985322;28;20105;-81
2021/12/19 12:51:39;;;;;;;10.35;3.03;;;8.90;78.40;;;;;;4990207;28;20038;-79
2021/12/19 12:54:27;;;;;;;;;;;8.90;78.20;;;;;;4987256;28;20085;-77
2021/12/19 12:56:58;;;;;;;9.25;2.70;;;8.90;77.80;;;;;;4970809;28;19944;-75
2021/12/19 12:59:29;;;;;;;7.60;2.00;;;8.90;78.30;;;;;;4975810;28;20054;-77
2021/12/19 13:02:13;;;;;;;14.43;2.78;;;8.90;78.30;;;;;;4974815;28;20541;-79
2021/12/19 13:04:46;;;;;;;9.43;3.00;;;8.90;78.30;;;;;;4956145;28;20050;-81
2021/12/19 13:07:24;;;;;;;9.47;2.60;;;8.80;78.10;;;;;;4965533;28;20050;-80
2021/12/19 13:09:56;;;;;;;11.30;2.63;;;8.80;77.90;;;;;;4977207;28;20305;-81
2021/12/19 13:12:31;;;;;;;13.63;2.95;;;8.80;77.80;;;;;;4975637;28;20047;-81
2021/12/19 13:15:05;;;;;;;10.52;2.80;;;8.80;77.80;;;;;;4974878;28;20513;-80
2021/12/19 13:17:37;;;;;;;14.80;3.38;;;8.80;77.70;;;;;;4987425;28;20046;-80
2021/12/19 13:20:11;;;;;;;10.82;2.60;;;8.80;77.70;;;;;;4984668;28;20043;-81
2021/12/19 13:22:39;;;;;;;13.43;2.97;;;8.80;77.70;;;;;;4991244;28;20042;-80
2021/12/19 13:25:15;;;;;;;13.63;3.90;;;8.80;77.70;;;;;;4981159;28;20549;-81
2021/12/19 13:27:59;;;;;;;9.82;2.35;;;8.80;77.80;;;;;;4980526;28;20048;-81
2021/12/19 13:30:30;;;;;;;15.57;3.63;;;8.80;77.80;;;;;;4982697;28;20042;-81
2021/12/19 13:32:56;;;;;;;13.05;2.42;;;8.80;77.80;;;;;;4979077;28;20050;-81
2021/12/19 13:35:40;;;;;;;13.90;3.20;;;8.80;77.90;;;;;;4963120;28;20062;-82
2021/12/19 13:38:22;;;;;;;13.93;3.25;;;8.80;77.90;;;;;;4991488;28;20046;-81
2021/12/19 13:41:01;;;;;;;11.73;2.88;;;8.80;78.00;;;;;;4978857;28;20130;-81
2021/12/19 13:43:38;;;;;;;10.82;2.92;;;8.80;78.00;;;;;;4986475;28;20466;-81
2021/12/19 13:46:13;;;;;;;11.73;3.00;;;8.80;78.00;;;;;;4980657;28;20509;-77
2021/12/19 13:48:40;;;;;;;16.73;3.15;;;8.80;78.10;;;;;;4980093;28;20093;-77
2021/12/19 13:51:13;;;;;;;10.68;2.65;;;8.80;78.10;;;;;;4984864;28;20044;-78
2021/12/19 13:53:45;;;;;;;16.38;3.17;;;8.80;78.10;;;;;;4988156;28;20073;-77
2021/12/19 13:56:16;;;;;;;14.07;3.03;;;8.80;78.10;;;;;;4986434;28;20046;-76
2021/12/19 13:58:46;;;;;;;11.98;3.30;;;8.80;78.10;;;;;;4989879;28;20038;-76
2021/12/19 14:01:24;;;;;;;11.02;2.95;;;8.80;78.10;;;;;;4982545;28;20466;-76
2021/12/19 14:03:59;;;;;;;15.90;3.17;;;8.80;78.10;;;;;;4989399;28;20077;-77
2021/12/19 14:06:32;;;;;;;10.73;2.72;;;8.80;78.50;;;;;;4977075;28;20074;-77
2021/12/19 14:09:00;;;;;;;14.15;2.70;;;8.80;78.00;;;;;;4984034;28;20093;-77
2021/12/19 14:11:27;;;;;;;11.75;2.33;;;8.80;78.00;;;;;;4991875;28;20532;-77
2021/12/19 14:14:00;;;;;;;14.30;3.60;;;8.80;77.90;;;;;;4978812;28;20057;-76
2021/12/19 14:16:33;;;;;;;9.68;2.83;;;8.80;77.80;;;;;;4963621;28;20051;-76
2021/12/19 14:18:59;;;;;;;16.20;3.22;;;8.90;77.90;;;;;;4961882;28;20047;-77